To NAV CANADA Home Page Login to a new session Search on AWWS site Feedback and Comments Disclaimer Vers la page française équivalente Tips FAQ What's new on the site To the Forecasts and Observations / NOTAM section To "File a Flight Plan" website Publications and other links Update of the User's profile FIC Telephone Numbers My Weather Data Folder Route Weather Data Regional Weather Data Local Weather Data To the Forecasts and Observations / NOTAM section
Request Generated 08/22/2017 at 03:33:38 UTC . Weather information available at that time is displayed.

METAR/TAF

MARYS HARBOUR/NL    (show WxCam)

SPECI CYMH 220307Z AUTO 19003KT 9SM SCT013 09/09 A2976 RMK SLP079=
METAR CYMH 220300Z AUTO 17005KT 9SM BKN013 10/10 A2976 RMK SLP079=
METAR CYMH 220200Z AUTO 08004KT 010V090 9SM BKN017 BKN028 10/10 A2976
RMK SLP078=
SPECI CYMH 220149Z AUTO 07004KT 9SM BKN019 BKN025 BKN030 10/10 A2975
RMK SLP076=
METAR CYMH 220100Z AUTO 18006KT 9SM CLR 10/10 A2973 RMK SLP068=

*** REMARK        : Forecast period has ended; this was the last TAF issued
*** REMARQUE : La période de prévision est échue; ceci était le dernier TAF qui a été émis
TAF AMD CYMH 220207Z 2202/2203 VRB03KT P6SM BKN020 TEMPO 2202/2203
BKN025
RMK FCST BASED ON AUTO OBS. NXT FCST WILL BE ISSUED AT 220845Z=
Your time UTC time
Weather data provided by Environment Canada and NAV CANADA